Terminal Aerodrome Forecast
Issued by NWS

Home | Current Version | Previous Version | Text Only | Print | Product List | Glossary On
Versions: 1 2 3 4 5 6 7 8 9 10 11 12 13
866
FTUS45 KABQ 290520
TAFTCC
TAF
KTCC 290520Z 2906/3006 21007KT P6SM BKN150
     FM291700 22015G25KT P6SM SCT100
     FM300300 03014G24KT P6SM VCTS SCT080CB=

USA.gov is the U.S. government's official web portal to all federal, state and local government web resources and services.